Terminal Aerodrome Forecast
Issued by NWS Sterling, VA

Current Version | Previous Version | Text Only | Print | Product List | Glossary On
Versions: 1 2 3 4 5 6 7 8 9 10 11 12
000
FTUS41 KLWX 221700 RRA
TAFMRB
TAF
KMRB 221742Z 2218/2318 33014G20KT 6SM -SHRA OVC030
      TEMPO 2218/2220 5SM -RA BR OVC030
     FM222000 33013G20KT P6SM OVC025
     FM230200 33015KT P6SM BKN050
     FM231300 31014G21KT P6SM BKN090=

USA.gov is the U.S. government's official web portal to all federal, state and local government web resources and services.